createdAt,value
2023-04-18T00:02:08.916Z,85.96
2023-04-18T00:04:35.328Z,86.12
2023-04-18T00:07:01.621Z,86.28
2023-04-18T00:09:28.078Z,86.61
2023-04-18T00:11:54.487Z,86.95
2023-04-18T00:14:20.878Z,87.21
2023-04-18T00:16:48.396Z,87.42
2023-04-18T00:19:14.764Z,87.82
2023-04-18T00:21:41.169Z,88.18
2023-04-18T00:24:07.636Z,88.48
2023-04-18T00:26:33.976Z,88.56
2023-04-18T00:29:00.343Z,88.82
2023-04-18T00:31:26.798Z,89.35
2023-04-18T00:33:53.105Z,89.86
2023-04-18T00:36:19.514Z,90.26
2023-04-18T00:38:45.923Z,90.26
2023-04-18T00:41:12.303Z,90.27
2023-04-18T00:43:38.696Z,90.38
2023-04-18T00:46:05.279Z,90.42
2023-04-18T00:48:31.603Z,90.46
2023-04-18T00:50:57.974Z,90.78
2023-04-18T00:53:24.428Z,91.04
2023-04-18T00:55:50.832Z,91.08
2023-04-18T00:58:17.249Z,91.20
2023-04-18T01:00:43.657Z,91.37
2023-04-18T01:03:10.222Z,91.64
2023-04-18T01:05:36.425Z,91.71
2023-04-18T01:08:02.794Z,91.80
2023-04-18T01:10:29.221Z,91.99
2023-04-18T01:12:55.638Z,92.14
2023-04-18T01:15:21.999Z,92.27
2023-04-18T01:17:48.433Z,92.40
2023-04-18T01:20:14.830Z,92.56
2023-04-18T01:22:41.311Z,92.67
2023-04-18T01:25:07.713Z,92.80
2023-04-18T01:27:34.079Z,92.96
2023-04-18T01:30:00.493Z,93.03
2023-04-18T01:32:26.941Z,93.08
2023-04-18T01:34:53.289Z,93.03
2023-04-18T01:37:19.663Z,93.28
2023-04-18T01:39:46.040Z,93.42
2023-04-18T01:42:12.427Z,93.64
2023-04-18T01:44:38.796Z,94.01
2023-04-18T01:47:05.175Z,94.41
2023-04-18T01:49:31.557Z,94.60
2023-04-18T01:51:57.975Z,94.68
2023-04-18T01:54:24.380Z,94.69
2023-04-18T01:56:50.758Z,94.75
2023-04-18T01:59:17.176Z,94.76
2023-04-18T02:01:43.618Z,94.93
2023-04-18T02:04:09.998Z,94.98
2023-04-18T02:06:36.383Z,95.21
2023-04-18T02:09:02.760Z,95.64
2023-04-18T02:11:29.144Z,95.87
2023-04-18T06:21:35.980Z,94.59
2023-04-18T06:24:02.460Z,94.12
2023-04-18T06:26:28.807Z,93.20
2023-04-18T06:28:55.515Z,92.81
2023-04-18T06:31:21.940Z,92.00
2023-04-18T06:33:48.340Z,91.35
2023-04-18T06:36:14.758Z,90.27
2023-04-18T06:38:41.233Z,89.21
2023-04-18T06:41:07.765Z,88.54
2023-04-18T06:43:34.230Z,88.19
2023-04-18T06:46:00.642Z,88.03
2023-04-18T06:48:27.002Z,87.90
2023-04-18T06:50:53.585Z,87.79
2023-04-18T06:53:20.009Z,87.78
2023-04-18T06:55:46.396Z,87.21
2023-04-18T06:58:12.796Z,86.36
2023-04-18T07:00:39.503Z,85.58
2023-04-18T07:03:07.610Z,85.65
2023-04-18T07:05:32.381Z,84.86
2023-04-18T07:07:58.792Z,83.46
2023-04-18T07:10:25.504Z,83.25
2023-04-18T07:12:52.018Z,83.13
2023-04-18T07:15:18.387Z,81.86
2023-04-18T07:17:44.828Z,81.40
2023-04-18T07:20:12.366Z,81.72
2023-04-18T07:22:37.550Z,82.20
2023-04-18T07:25:04.215Z,82.03
2023-04-18T07:27:30.713Z,82.09
2023-04-18T07:29:57.187Z,80.97
2023-04-18T07:32:23.732Z,80.52
2023-04-18T07:34:50.048Z,80.71
2023-04-18T07:37:16.412Z,79.49
2023-04-18T07:39:42.844Z,78.97
2023-04-18T07:42:09.245Z,77.68
2023-04-18T07:44:35.728Z,74.42
2023-04-18T07:47:02.194Z,73.61
2023-04-18T07:49:28.570Z,73.29
2023-04-18T07:51:54.976Z,73.19
2023-04-18T07:54:21.410Z,72.01
2023-04-18T07:56:47.826Z,70.58
2023-04-18T07:59:14.455Z,71.00
2023-04-18T08:01:40.659Z,70.33
2023-04-18T08:04:07.245Z,70.40
2023-04-18T08:06:33.550Z,69.89
2023-04-18T08:08:59.927Z,68.93
2023-04-18T08:11:26.387Z,67.63
2023-04-18T08:13:52.803Z,67.27
2023-04-18T08:16:19.228Z,67.16
2023-04-18T08:18:45.584Z,66.71
2023-04-18T08:21:12.002Z,67.24
2023-04-18T08:23:38.506Z,66.58
2023-04-18T08:26:04.825Z,66.93
2023-04-18T08:28:31.222Z,65.39
2023-04-18T08:30:57.590Z,64.80
2023-04-18T08:33:26.147Z,64.67
2023-04-18T08:35:52.582Z,64.28
2023-04-18T08:38:23.304Z,63.80
2023-04-18T08:40:49.714Z,63.50
2023-04-18T08:43:16.073Z,63.48
2023-04-18T08:45:42.644Z,62.51
2023-04-18T08:48:08.953Z,62.34
2023-04-18T08:50:35.292Z,62.65
2023-04-18T08:53:01.663Z,62.18
2023-04-18T08:55:28.377Z,61.53
2023-04-18T08:57:55.155Z,61.55
2023-04-18T09:00:21.800Z,60.50
2023-04-18T09:02:48.246Z,59.55
2023-04-18T09:05:14.597Z,59.63
2023-04-18T09:07:40.931Z,57.26
2023-04-18T09:10:07.311Z,57.77
2023-04-18T09:12:33.614Z,58.06
2023-04-18T09:15:00.019Z,58.33
2023-04-18T09:17:26.348Z,58.77
2023-04-18T09:19:52.731Z,59.72
2023-04-18T09:22:19.155Z,60.31
2023-04-18T09:24:45.514Z,60.86
2023-04-18T09:27:11.899Z,61.08
2023-04-18T09:29:38.267Z,61.17
2023-04-18T09:32:04.681Z,61.44
2023-04-18T09:34:32.181Z,61.51
2023-04-18T09:36:58.720Z,61.75
2023-04-18T09:39:25.091Z,61.80
2023-04-18T09:41:54.147Z,61.94
2023-04-18T09:44:20.704Z,61.48
2023-04-18T09:46:47.584Z,60.98
2023-04-18T09:49:13.529Z,60.70
2023-04-18T09:51:40.121Z,60.50
2023-04-18T09:54:06.473Z,60.47
2023-04-18T09:56:32.844Z,60.83
2023-04-18T09:58:59.251Z,60.78
2023-04-18T10:01:25.862Z,61.14
2023-04-18T10:03:52.269Z,60.84
2023-04-18T10:06:18.644Z,61.07
2023-04-18T10:08:45.080Z,60.64
2023-04-18T10:11:11.453Z,60.49
2023-04-18T10:13:37.842Z,60.18
2023-04-18T10:16:04.288Z,60.18
2023-04-18T10:18:30.672Z,60.26
2023-04-18T10:20:57.003Z,60.30
2023-04-18T10:23:23.434Z,60.32
2023-04-18T10:25:49.888Z,60.14
2023-04-18T10:28:16.289Z,59.95
2023-04-18T10:30:42.649Z,60.07
2023-04-18T10:33:18.353Z,60.42
2023-04-18T10:35:35.556Z,60.29
2023-04-18T10:38:01.977Z,60.50
2023-04-18T10:40:28.366Z,60.67
2023-04-18T10:42:54.701Z,60.68
2023-04-18T10:45:21.211Z,60.72
2023-04-18T10:47:47.688Z,60.40
2023-04-18T10:50:14.093Z,60.08
2023-04-18T10:52:40.539Z,60.14
2023-04-18T10:55:06.938Z,60.21
2023-04-18T10:57:33.377Z,60.31
2023-04-18T10:59:59.720Z,60.31
2023-04-18T11:02:26.410Z,60.22
2023-04-18T11:04:52.596Z,59.63
2023-04-18T11:07:20.105Z,59.63
2023-04-18T11:09:46.643Z,59.41
2023-04-18T11:12:12.998Z,58.66
2023-04-18T11:14:39.480Z,57.41
2023-04-18T11:17:05.861Z,56.71
2023-04-18T11:19:32.225Z,56.44
2023-04-18T11:21:58.604Z,57.79
2023-04-18T11:24:24.973Z,57.20
2023-04-18T11:26:51.620Z,56.71
2023-04-18T11:29:17.984Z,56.83
2023-04-18T11:31:44.417Z,56.81
2023-04-18T11:34:11.176Z,55.92
2023-04-18T11:36:37.505Z,55.16
2023-04-18T11:39:03.917Z,55.32
2023-04-18T11:41:30.326Z,56.49
2023-04-18T11:43:56.748Z,56.35
2023-04-18T11:46:23.232Z,56.35
2023-04-18T11:48:49.537Z,58.35
2023-04-18T11:51:15.898Z,58.76
2023-04-18T11:53:42.349Z,58.78
2023-04-18T11:56:08.980Z,59.52
2023-04-18T11:58:35.424Z,60.32
2023-04-18T12:01:01.872Z,61.09
2023-04-18T12:03:28.398Z,61.59
2023-04-18T12:05:54.769Z,61.49
2023-04-18T12:08:21.114Z,62.08
2023-04-18T12:10:47.672Z,62.29
2023-04-18T12:13:14.020Z,62.61
2023-04-18T12:15:40.498Z,62.11
2023-04-18T12:18:07.190Z,61.78
2023-04-18T12:20:34.622Z,61.95
2023-04-18T12:23:01.022Z,61.98
2023-04-18T12:25:27.872Z,62.39
2023-04-18T12:27:53.936Z,62.52
2023-04-18T12:30:20.292Z,62.45
2023-04-18T12:32:46.794Z,62.42
2023-04-18T12:35:13.119Z,62.45
2023-04-18T12:37:39.683Z,62.72
2023-04-18T12:40:06.095Z,62.65
2023-04-18T12:42:32.488Z,62.58
2023-04-18T12:44:58.898Z,62.71
2023-04-18T12:47:25.426Z,62.63
2023-04-18T12:49:51.816Z,62.42
2023-04-18T12:52:18.196Z,62.40
2023-04-18T12:54:44.865Z,62.65
2023-04-18T12:57:12.430Z,62.55
2023-04-18T12:59:38.830Z,62.75
2023-04-18T13:02:05.403Z,62.93
2023-04-18T13:04:34.221Z,62.96
2023-04-18T13:07:00.254Z,62.93
2023-04-18T13:09:26.707Z,62.75
2023-04-18T13:11:53.788Z,62.76
2023-04-18T13:14:20.208Z,62.87
2023-04-18T13:16:46.696Z,62.82
2023-04-18T13:19:13.163Z,62.77
2023-04-18T13:21:39.476Z,62.49
2023-04-18T13:24:05.910Z,62.40
2023-04-18T13:26:32.345Z,62.23
2023-04-18T13:28:58.722Z,62.19
2023-04-18T13:31:25.388Z,61.69
2023-04-18T13:33:51.731Z,61.87
2023-04-18T13:36:18.160Z,61.89
2023-04-18T13:38:44.617Z,61.66
2023-04-18T13:41:13.711Z,61.31
2023-04-18T13:43:39.547Z,61.21
2023-04-18T13:46:05.979Z,60.96
2023-04-18T13:48:32.468Z,61.02
2023-04-18T13:50:58.840Z,60.99
2023-04-18T13:53:25.213Z,61.14
2023-04-18T13:55:51.647Z,61.09
2023-04-18T13:58:18.097Z,61.11
2023-04-18T14:00:44.560Z,61.08
2023-04-18T14:03:11.033Z,60.91
2023-04-18T14:05:37.262Z,60.89
2023-04-18T14:08:03.704Z,61.02
2023-04-18T14:10:31.167Z,60.83
2023-04-18T14:12:57.611Z,61.01
2023-04-18T14:15:23.977Z,61.15
2023-04-18T14:17:50.611Z,61.15
2023-04-18T14:20:17.043Z,61.24
2023-04-18T14:22:43.484Z,60.94
2023-04-18T14:25:09.851Z,60.74
2023-04-18T14:27:36.283Z,60.68
2023-04-18T14:30:02.698Z,60.56
2023-04-18T14:32:29.131Z,60.62
2023-04-18T14:34:55.545Z,60.87
2023-04-18T14:37:21.915Z,60.90
2023-04-18T14:39:48.360Z,61.00
2023-04-18T14:42:14.727Z,61.18
2023-04-18T14:44:41.119Z,61.39
2023-04-18T14:47:07.650Z,61.52
2023-04-18T14:49:34.016Z,61.49
2023-04-18T14:52:00.427Z,61.43
2023-04-18T14:54:26.853Z,61.29
2023-04-18T14:56:53.287Z,61.33
2023-04-18T14:59:19.978Z,61.24
2023-04-18T15:01:46.171Z,61.24
2023-04-18T15:04:13.094Z,61.24
2023-04-18T15:06:38.931Z,61.23
2023-04-18T15:09:05.306Z,61.12
2023-04-18T15:11:31.716Z,60.99
2023-04-18T15:13:58.151Z,60.95
2023-04-18T15:16:24.554Z,61.11
2023-04-18T15:18:50.903Z,61.18
2023-04-18T15:21:17.310Z,61.09
2023-04-18T15:23:43.723Z,61.14
2023-04-18T15:26:10.119Z,61.06
2023-04-18T15:28:36.780Z,61.09
2023-04-18T15:31:03.162Z,61.21
2023-04-18T15:33:29.557Z,61.43
2023-04-18T15:35:55.990Z,61.43
2023-04-18T15:38:22.383Z,61.44
2023-04-18T15:40:49.046Z,61.51
2023-04-18T15:43:15.488Z,61.80
2023-04-18T15:45:42.044Z,61.72
2023-04-18T15:48:08.448Z,61.85
2023-04-18T15:50:34.908Z,61.94
2023-04-18T15:53:01.373Z,62.06
2023-04-18T15:55:27.751Z,62.12
2023-04-18T15:57:54.178Z,62.21
2023-04-18T16:00:22.758Z,62.21
2023-04-18T16:02:49.466Z,62.08
2023-04-18T16:05:15.784Z,62.24
2023-04-18T16:07:42.312Z,62.31
2023-04-18T16:10:08.609Z,62.48
2023-04-18T16:12:34.985Z,62.35
2023-04-18T16:15:01.503Z,62.60
2023-04-18T16:17:27.863Z,62.54
2023-04-18T16:19:55.302Z,62.58
2023-04-18T16:22:21.692Z,62.85
2023-04-18T16:24:48.105Z,62.95
2023-04-18T16:27:14.525Z,63.11
2023-04-18T16:29:40.940Z,63.17
2023-04-18T16:32:07.366Z,63.34
2023-04-18T16:34:33.732Z,63.56
2023-04-18T16:37:00.251Z,63.74
2023-04-18T16:39:26.679Z,63.58
2023-04-18T16:41:53.115Z,63.56
2023-04-18T16:44:19.646Z,63.55
2023-04-18T16:46:46.112Z,63.63
2023-04-18T16:49:12.497Z,63.57
2023-04-18T16:51:39.018Z,63.51
2023-04-18T16:54:05.409Z,63.75
2023-04-18T16:56:31.785Z,64.00
2023-04-18T16:58:58.213Z,63.91
2023-04-18T17:01:25.202Z,64.08
2023-04-18T17:03:51.672Z,64.53
2023-04-18T17:06:17.955Z,64.47
2023-04-18T17:08:46.820Z,64.95
2023-04-18T17:11:13.272Z,65.02
2023-04-18T17:13:39.663Z,64.97
2023-04-18T17:16:06.143Z,65.00
2023-04-18T17:18:32.489Z,65.19
2023-04-18T17:20:58.909Z,65.73
2023-04-18T17:23:25.288Z,65.83
2023-04-18T17:25:55.523Z,65.91
2023-04-18T17:28:22.319Z,65.75
2023-04-18T17:30:48.987Z,66.14
2023-04-18T17:33:15.367Z,66.07
2023-04-18T17:35:41.782Z,66.30
2023-04-18T17:38:08.792Z,66.53
2023-04-18T17:40:35.176Z,67.11
2023-04-18T17:43:01.625Z,68.95
2023-04-18T17:45:28.396Z,68.70
2023-04-18T17:48:06.751Z,68.15
2023-04-18T17:50:33.440Z,68.07
2023-04-18T17:52:59.825Z,67.76
2023-04-18T17:55:26.272Z,67.66
2023-04-18T17:57:52.684Z,67.78
2023-04-18T18:00:19.065Z,67.95
2023-04-18T18:02:45.617Z,67.82
2023-04-18T18:05:11.873Z,67.85
2023-04-18T18:07:38.296Z,67.96
2023-04-18T18:10:04.664Z,68.04
2023-04-18T18:12:31.135Z,68.04
2023-04-18T18:14:57.482Z,68.04
2023-04-18T18:17:23.900Z,67.98
2023-04-18T18:19:50.389Z,67.89
2023-04-18T18:22:16.797Z,67.76
2023-04-18T18:24:43.173Z,67.73
2023-04-18T18:27:09.573Z,67.76
2023-04-18T18:29:35.964Z,67.87
2023-04-18T18:32:02.489Z,67.94
2023-04-18T18:34:28.890Z,67.92
2023-04-18T18:36:55.348Z,68.02
2023-04-18T18:39:21.711Z,67.95
2023-04-18T18:41:48.160Z,68.14
2023-04-18T18:44:14.575Z,68.11
2023-04-18T18:46:42.983Z,68.02
2023-04-18T18:49:07.389Z,67.95
2023-04-18T18:51:33.835Z,68.01
2023-04-18T18:54:00.244Z,67.94
2023-04-18T18:56:26.632Z,67.81
2023-04-18T18:58:53.008Z,67.71
2023-04-18T19:01:19.490Z,67.70
2023-04-18T19:03:45.929Z,67.66
2023-04-18T19:06:12.224Z,67.80
2023-04-18T19:08:38.665Z,67.82
2023-04-18T19:11:05.040Z,67.89
2023-04-18T19:13:31.436Z,68.09
2023-04-18T19:15:57.879Z,68.33
2023-04-18T19:18:24.329Z,68.35
2023-04-18T19:20:50.708Z,68.42
2023-04-18T19:23:17.113Z,68.44
2023-04-18T19:25:43.550Z,68.30
2023-04-18T19:28:10.079Z,68.18
2023-04-18T19:30:36.470Z,68.23
2023-04-18T19:33:02.982Z,68.22
2023-04-18T19:35:29.338Z,68.17
2023-04-18T19:37:55.700Z,68.20
2023-04-18T19:40:22.229Z,68.33
2023-04-18T19:42:48.600Z,68.33
2023-04-18T19:45:15.029Z,68.39
2023-04-18T19:47:41.417Z,68.39
2023-04-18T19:50:07.786Z,68.40
2023-04-18T19:52:34.345Z,68.35
2023-04-18T19:55:00.775Z,68.50
2023-04-18T19:57:27.366Z,68.58
2023-04-18T19:59:53.854Z,68.68
2023-04-18T20:02:20.465Z,68.84
2023-04-18T20:04:46.811Z,68.91
2023-04-18T20:07:13.175Z,69.14
2023-04-18T20:09:39.563Z,69.47
